createdAt,value
2023-02-12T00:01:10.963Z,6.80
2023-02-12T00:03:39.200Z,6.80
2023-02-12T00:06:08.135Z,6.60
2023-02-12T00:08:36.264Z,5.60
2023-02-12T00:11:25.212Z,3.10
2023-02-12T00:13:53.358Z,3.00
2023-02-12T00:16:23.872Z,2.70
2023-02-12T00:18:53.171Z,4.40
2023-02-12T00:21:21.628Z,5.20
2023-02-12T00:23:49.626Z,3.90
2023-02-12T00:26:19.574Z,3.70
2023-02-12T00:28:48.280Z,3.20
2023-02-12T00:31:20.914Z,3.50
2023-02-12T00:33:49.357Z,5.10
2023-02-12T00:36:19.481Z,3.00
2023-02-12T00:38:48.068Z,3.80
2023-02-12T00:41:16.004Z,3.70
2023-02-12T00:43:44.073Z,3.60
2023-02-12T00:46:12.260Z,3.20
2023-02-12T00:48:40.296Z,3.70
2023-02-12T00:51:08.410Z,4.30
2023-02-12T00:53:36.604Z,3.70
2023-02-12T00:56:04.730Z,3.20
2023-02-12T00:58:32.726Z,2.50
2023-02-12T01:01:01.025Z,5.90
2023-02-12T01:03:29.066Z,7.70
2023-02-12T01:05:57.944Z,8.70
2023-02-12T01:08:26.235Z,6.00
2023-02-12T01:10:58.597Z,4.10
2023-02-12T01:13:26.785Z,4.60
2023-02-12T01:16:12.827Z,4.50
2023-02-12T01:18:40.819Z,4.40
2023-02-12T01:21:13.959Z,3.60
2023-02-12T01:23:42.009Z,3.70
2023-02-12T01:26:12.995Z,4.30
2023-02-12T01:28:41.747Z,6.20
2023-02-12T01:31:18.391Z,6.30
2023-02-12T01:33:50.378Z,7.20
2023-02-12T01:36:18.434Z,7.20
2023-02-12T01:38:49.115Z,5.40
2023-02-12T01:41:22.198Z,4.60
2023-02-12T01:44:11.651Z,4.50
2023-02-12T01:46:39.794Z,2.60
2023-02-12T01:49:11.288Z,4.20
2023-02-12T01:51:39.205Z,5.00
2023-02-12T01:54:08.627Z,2.00
2023-02-12T01:56:36.673Z,6.10
2023-02-12T01:59:04.648Z,6.60
2023-02-12T02:01:33.243Z,4.10
2023-02-12T02:04:03.364Z,3.50
2023-02-12T02:06:49.105Z,2.30
2023-02-12T02:09:18.094Z,2.20
2023-02-12T02:12:04.640Z,2.20
2023-02-12T02:14:32.675Z,2.50
2023-02-12T02:17:21.647Z,2.20
2023-02-12T02:20:19.149Z,2.00
2023-02-12T02:23:21.334Z,3.10
2023-02-12T02:26:11.125Z,2.30
2023-02-12T02:29:16.979Z,1.10
2023-02-12T02:31:52.484Z,2.20
2023-02-12T02:34:52.803Z,1.10
2023-02-12T02:37:40.395Z,2.90
2023-02-12T02:40:12.118Z,2.70
2023-02-12T02:43:10.489Z,4.60
2023-02-12T02:45:40.917Z,4.20
2023-02-12T02:48:24.693Z,5.00
2023-02-12T02:50:56.323Z,3.70
2023-02-12T02:53:30.565Z,3.80
2023-02-12T02:56:00.330Z,4.30
2023-02-12T02:58:39.611Z,4.60
2023-02-12T03:01:18.280Z,4.30
2023-02-12T03:03:50.741Z,5.90
2023-02-12T03:06:29.751Z,4.70
2023-02-12T03:09:01.940Z,4.40
2023-02-12T03:11:33.798Z,4.40
2023-02-12T03:14:17.166Z,4.60
2023-02-12T03:17:05.077Z,5.20
2023-02-12T03:19:45.329Z,5.10
2023-02-12T03:22:16.164Z,5.60
2023-02-12T03:24:51.477Z,5.50
2023-02-12T03:28:17.680Z,5.50
2023-02-12T03:31:01.751Z,4.80
2023-02-12T03:33:35.416Z,4.80
2023-02-12T03:36:08.350Z,4.30
2023-02-12T03:38:39.185Z,4.80
2023-02-12T03:41:11.638Z,5.60
2023-02-12T03:43:50.548Z,5.80
2023-02-12T03:46:30.186Z,5.20
2023-02-12T03:49:04.811Z,5.20
2023-02-12T03:51:34.768Z,7.40
2023-02-12T03:54:03.117Z,6.60
2023-02-12T03:56:38.313Z,5.30
2023-02-12T03:59:06.305Z,4.40
2023-02-12T04:01:34.421Z,3.60
2023-02-12T04:04:04.706Z,4.40
2023-02-12T04:06:32.718Z,5.40
2023-02-12T04:09:09.000Z,6.00
2023-02-12T04:11:49.285Z,5.80
2023-02-12T04:14:49.978Z,5.60
2023-02-12T04:17:27.012Z,5.60
2023-02-12T04:20:07.341Z,5.70
2023-02-12T04:22:39.292Z,5.60
2023-02-12T04:25:11.775Z,4.70
2023-02-12T04:27:54.663Z,4.40
2023-02-12T04:30:27.222Z,5.10
2023-02-12T04:33:03.767Z,5.20
2023-02-12T04:35:32.899Z,5.40
2023-02-12T04:38:09.199Z,5.30
2023-02-12T04:40:39.800Z,5.40
2023-02-12T04:43:07.754Z,4.80
2023-02-12T04:45:35.846Z,4.40
2023-02-12T04:48:04.375Z,4.20
2023-02-12T04:50:43.127Z,3.90
2023-02-12T04:53:11.147Z,4.20
2023-02-12T04:55:39.193Z,5.60
2023-02-12T04:58:07.286Z,5.60
2023-02-12T05:00:35.261Z,4.80
2023-02-12T05:03:03.322Z,5.80
2023-02-12T05:05:31.417Z,6.10
2023-02-12T05:07:59.297Z,6.30
2023-02-12T05:10:27.318Z,6.60
2023-02-12T05:12:55.584Z,6.90
2023-02-12T05:15:23.688Z,6.80
2023-02-12T05:17:51.721Z,5.90
2023-02-12T05:20:24.470Z,5.50
2023-02-12T05:22:53.709Z,4.60
2023-02-12T05:25:21.697Z,5.60
2023-02-12T05:27:49.671Z,4.70
2023-02-12T05:30:17.707Z,4.40
2023-02-12T05:32:45.959Z,7.10
2023-02-12T05:35:13.915Z,6.80
2023-02-12T05:37:41.955Z,6.30
2023-02-12T05:40:10.473Z,5.70
2023-02-12T05:42:38.496Z,5.80
2023-02-12T05:45:06.978Z,5.70
2023-02-12T05:47:34.888Z,5.20
2023-02-12T05:50:03.083Z,5.30
2023-02-12T05:52:30.998Z,5.20
2023-02-12T05:54:58.978Z,5.30
2023-02-12T05:57:26.920Z,6.30
2023-02-12T05:59:54.919Z,6.60
2023-02-12T06:02:22.946Z,6.10
2023-02-12T06:04:50.874Z,5.50
2023-02-12T06:07:18.791Z,5.00
2023-02-12T06:09:46.871Z,5.00
2023-02-12T06:12:14.947Z,4.70
2023-02-12T06:14:43.130Z,5.40
2023-02-12T06:17:11.099Z,5.70
2023-02-12T06:19:39.128Z,4.60
2023-02-12T06:22:07.126Z,5.40
2023-02-12T06:24:35.449Z,6.50
2023-02-12T06:27:03.551Z,6.50
2023-02-12T06:29:32.135Z,10.90
2023-02-12T06:32:00.288Z,9.40
2023-02-12T06:34:28.486Z,23.20
2023-02-12T06:36:56.668Z,14.90
2023-02-12T06:39:24.977Z,17.80
2023-02-12T06:41:53.212Z,15.10
2023-02-12T06:44:21.269Z,11.10
2023-02-12T06:46:49.581Z,5.50
2023-02-12T06:49:17.929Z,15.60
2023-02-12T06:51:46.058Z,15.30
2023-02-12T06:54:15.224Z,14.20
2023-02-12T06:56:43.787Z,10.40
2023-02-12T06:59:16.000Z,12.40
2023-02-12T07:01:44.132Z,9.90
2023-02-12T07:04:12.265Z,9.80
2023-02-12T07:06:40.263Z,8.30
2023-02-12T07:09:08.447Z,7.70
2023-02-12T07:11:38.333Z,7.30
2023-02-12T07:14:07.082Z,6.20
2023-02-12T07:16:35.083Z,6.90
2023-02-12T07:19:03.292Z,6.30
2023-02-12T07:21:32.326Z,5.40
2023-02-12T07:24:00.419Z,5.90
2023-02-12T07:26:28.978Z,5.20
2023-02-12T07:28:57.509Z,6.30
2023-02-12T07:31:25.985Z,5.70
2023-02-12T07:33:55.529Z,5.80
2023-02-12T07:36:23.833Z,6.30
2023-02-12T07:38:52.002Z,5.90
2023-02-12T07:41:27.310Z,5.80
2023-02-12T07:44:00.236Z,7.00
2023-02-12T07:46:30.555Z,7.90
2023-02-12T07:48:59.570Z,11.40
2023-02-12T07:51:27.794Z,6.30
2023-02-12T07:53:56.141Z,6.50
2023-02-12T07:56:26.134Z,6.80
2023-02-12T07:58:54.188Z,6.30
2023-02-12T08:01:28.484Z,6.40
2023-02-12T08:04:00.983Z,6.40
2023-02-12T08:06:30.555Z,7.80
2023-02-12T08:09:00.038Z,6.00
2023-02-12T08:11:28.659Z,6.60
2023-02-12T08:13:57.086Z,6.70
2023-02-12T08:16:26.076Z,4.60
2023-02-12T08:18:54.567Z,5.10
2023-02-12T08:21:24.570Z,5.60
2023-02-12T08:23:54.245Z,5.90
2023-02-12T08:26:26.476Z,6.00
2023-02-12T08:28:56.289Z,6.40
2023-02-12T08:31:26.366Z,6.90
2023-02-12T08:33:55.615Z,6.20
2023-02-12T08:36:31.506Z,5.40
2023-02-12T08:38:59.792Z,6.40
2023-02-12T08:41:29.241Z,5.90
2023-02-12T08:43:59.015Z,6.00
2023-02-12T08:46:31.557Z,7.30
2023-02-12T08:49:01.300Z,6.90
2023-02-12T08:51:31.957Z,6.90
2023-02-12T08:54:01.347Z,6.20
2023-02-12T08:56:30.380Z,7.70
2023-02-12T08:58:58.994Z,6.10
2023-02-12T09:01:28.344Z,6.00
2023-02-12T09:03:56.568Z,6.10
2023-02-12T09:06:24.911Z,4.70
2023-02-12T09:08:53.694Z,5.10
2023-02-12T09:11:26.793Z,4.30
2023-02-12T09:13:54.743Z,5.20
2023-02-12T09:16:22.858Z,5.40
2023-02-12T09:18:50.981Z,5.30
2023-02-12T09:21:19.778Z,5.10
2023-02-12T09:23:47.889Z,4.70
2023-02-12T09:26:18.313Z,4.00
2023-02-12T09:28:46.291Z,4.20
2023-02-12T09:31:16.792Z,3.50
2023-02-12T09:33:44.887Z,3.40
2023-02-12T09:36:16.608Z,3.90
2023-02-12T09:38:44.627Z,4.00
2023-02-12T09:41:19.074Z,3.80
2023-02-12T09:44:01.135Z,4.10
2023-02-12T09:47:00.771Z,3.90
2023-02-12T09:49:47.421Z,3.50
2023-02-12T09:52:23.383Z,2.90
2023-02-12T09:54:51.407Z,3.20
2023-02-12T09:57:26.502Z,3.80
2023-02-12T10:00:19.748Z,4.00
2023-02-12T10:02:47.964Z,3.90
2023-02-12T10:05:20.919Z,3.70
2023-02-12T10:08:01.860Z,3.60
2023-02-12T10:10:53.040Z,4.50
2023-02-12T10:13:31.112Z,6.60
2023-02-12T10:16:14.453Z,4.70
2023-02-12T10:18:46.268Z,4.00
2023-02-12T10:21:33.035Z,2.70
2023-02-12T10:24:11.996Z,3.90
2023-02-12T10:26:50.794Z,4.60
2023-02-12T10:29:21.328Z,5.90
2023-02-12T10:31:53.367Z,4.50
2023-02-12T10:34:26.607Z,5.80
2023-02-12T10:36:58.622Z,7.90
2023-02-12T10:39:32.216Z,5.90
2023-02-12T10:42:14.725Z,5.30
2023-02-12T10:44:42.896Z,5.20
2023-02-12T10:47:18.713Z,5.90
2023-02-12T10:49:54.461Z,5.50
2023-02-12T10:52:34.574Z,6.60
2023-02-12T10:55:02.629Z,6.70
2023-02-12T10:57:31.049Z,4.90
2023-02-12T11:00:21.497Z,9.60
2023-02-12T11:03:17.865Z,7.40
2023-02-12T11:05:46.167Z,6.60
2023-02-12T11:08:28.619Z,6.20
2023-02-12T11:10:57.687Z,5.20
2023-02-12T11:13:26.618Z,6.80
2023-02-12T11:15:55.198Z,6.70
2023-02-12T11:18:28.663Z,6.70
2023-02-12T11:20:57.955Z,6.80
2023-02-12T11:23:30.366Z,6.10
2023-02-12T11:26:07.241Z,6.80
2023-02-12T11:28:36.386Z,5.90
2023-02-12T11:31:28.699Z,6.40
2023-02-12T11:34:09.152Z,6.10
2023-02-12T11:36:41.376Z,6.10
2023-02-12T11:39:18.427Z,6.30
2023-02-12T11:41:51.044Z,6.60
2023-02-12T11:44:24.947Z,6.70
2023-02-12T11:47:09.127Z,6.20
2023-02-12T11:49:51.007Z,6.90
2023-02-12T11:52:26.453Z,5.90
2023-02-12T11:54:57.232Z,6.20
2023-02-12T11:57:43.589Z,5.20
2023-02-12T12:00:13.121Z,6.00
2023-02-12T12:03:22.055Z,7.10
2023-02-12T12:06:00.327Z,7.50
2023-02-12T12:08:41.009Z,7.10
2023-02-12T12:11:13.916Z,7.00
2023-02-12T12:13:47.399Z,5.60
2023-02-12T12:16:41.558Z,6.90
2023-02-12T12:19:41.182Z,9.30
2023-02-12T12:22:21.438Z,9.40
2023-02-12T12:25:17.339Z,8.70
2023-02-12T12:28:03.943Z,7.00
2023-02-12T12:30:44.673Z,9.50
2023-02-12T12:33:37.423Z,9.10
2023-02-12T12:36:22.306Z,8.20
2023-02-12T12:38:56.485Z,7.80
2023-02-12T12:41:48.555Z,8.80
2023-02-12T12:44:26.807Z,7.60
2023-02-12T12:47:09.861Z,8.90
2023-02-12T12:49:44.602Z,8.90
2023-02-12T12:52:16.364Z,7.00
2023-02-12T12:54:48.494Z,7.20
2023-02-12T12:57:20.900Z,8.00
2023-02-12T12:59:48.809Z,6.80
2023-02-12T13:02:23.293Z,8.40
2023-02-12T13:05:09.463Z,7.30
2023-02-12T13:07:49.614Z,8.70
2023-02-12T13:10:30.219Z,6.30
2023-02-12T13:13:19.810Z,9.10
2023-02-12T13:15:51.108Z,8.30
2023-02-12T13:18:21.430Z,5.90
2023-02-12T13:20:59.471Z,8.80
2023-02-12T13:24:01.917Z,6.30
2023-02-12T13:26:48.204Z,9.50
2023-02-12T13:29:21.079Z,8.60
2023-02-12T13:31:51.579Z,9.10
2023-02-12T13:34:19.758Z,8.30
2023-02-12T13:36:47.694Z,8.40
2023-02-12T13:39:25.802Z,9.20
2023-02-12T13:42:11.127Z,8.20
2023-02-12T13:45:15.336Z,10.00
2023-02-12T13:47:59.088Z,10.10
2023-02-12T13:50:42.584Z,9.40
2023-02-12T13:53:32.525Z,10.10
2023-02-12T13:56:15.948Z,9.20
2023-02-12T13:58:48.640Z,10.50
2023-02-12T14:01:39.038Z,9.60
2023-02-12T14:04:35.405Z,8.70
2023-02-12T14:07:07.261Z,9.70
2023-02-12T14:09:41.008Z,9.60
2023-02-12T14:12:24.376Z,8.20
2023-02-12T14:14:56.380Z,9.20
2023-02-12T14:17:33.677Z,9.20
2023-02-12T14:20:20.269Z,10.30
2023-02-12T14:22:48.556Z,10.10
2023-02-12T14:25:16.564Z,7.30
2023-02-12T14:28:00.660Z,9.70
2023-02-12T14:30:36.102Z,9.40
2023-02-12T14:33:08.410Z,8.40
2023-02-12T14:35:38.906Z,8.40
2023-02-12T14:38:12.907Z,7.80
2023-02-12T14:40:47.733Z,8.40
2023-02-12T14:43:29.909Z,8.50
2023-02-12T14:46:00.041Z,8.30
2023-02-12T14:49:05.103Z,8.20
2023-02-12T14:51:43.887Z,8.40
2023-02-12T14:54:28.839Z,8.50
2023-02-12T14:56:56.898Z,8.00
2023-02-12T14:59:25.457Z,9.00
2023-02-12T15:01:54.715Z,9.30
2023-02-12T15:04:27.942Z,9.90
2023-02-12T15:07:08.555Z,9.40
2023-02-12T15:09:42.842Z,9.30
2023-02-12T15:12:47.569Z,10.10
2023-02-12T15:15:28.250Z,10.70
2023-02-12T15:18:26.676Z,9.80
2023-02-12T15:21:06.537Z,9.30
2023-02-12T15:23:41.652Z,9.90
2023-02-12T15:26:18.276Z,9.90
2023-02-12T15:28:47.456Z,9.70
2023-02-12T15:31:16.929Z,9.20
2023-02-12T15:33:47.023Z,8.60
2023-02-12T15:36:20.780Z,9.30
2023-02-12T15:38:52.418Z,10.80
2023-02-12T15:41:42.953Z,9.20
2023-02-12T15:44:23.694Z,8.60
2023-02-12T15:47:03.937Z,8.30
2023-02-12T15:49:34.895Z,8.40
2023-02-12T15:52:17.787Z,8.80
2023-02-12T15:54:46.048Z,8.80
2023-02-12T15:57:20.217Z,7.10
2023-02-12T15:59:56.417Z,8.10
2023-02-12T16:02:29.696Z,8.30
2023-02-12T16:04:58.603Z,8.30
2023-02-12T16:07:26.892Z,8.50
2023-02-12T16:09:55.347Z,7.70
2023-02-12T16:12:25.092Z,8.00
2023-02-12T16:14:57.704Z,8.10
2023-02-12T16:17:25.800Z,8.20
2023-02-12T16:19:58.747Z,9.30
2023-02-12T16:22:33.074Z,10.40
2023-02-12T16:25:01.344Z,13.30
2023-02-12T16:27:35.591Z,10.00
2023-02-12T16:30:45.267Z,15.80
2023-02-12T16:33:34.342Z,10.40
2023-02-12T16:36:30.665Z,10.20
2023-02-12T16:39:04.183Z,9.00
2023-02-12T16:41:33.500Z,10.00
2023-02-12T16:44:01.729Z,8.70
2023-02-12T16:46:31.687Z,10.50
2023-02-12T16:49:01.057Z,11.60
2023-02-12T16:51:31.222Z,26.50
2023-02-12T16:54:03.508Z,11.30
2023-02-12T16:56:34.471Z,10.80
2023-02-12T16:59:02.577Z,9.90
2023-02-12T17:01:35.515Z,11.10
2023-02-12T17:04:14.405Z,18.60
2023-02-12T17:06:43.670Z,9.80
2023-02-12T17:09:11.680Z,10.60
2023-02-12T17:11:39.579Z,9.60
2023-02-12T17:14:10.746Z,10.70
2023-02-12T17:16:38.924Z,11.10
2023-02-12T17:19:07.055Z,12.10
2023-02-12T17:21:40.352Z,11.50
2023-02-12T17:24:28.722Z,9.90
2023-02-12T17:26:57.016Z,8.60
2023-02-12T17:29:25.276Z,11.60
2023-02-12T17:31:54.162Z,11.20
2023-02-12T17:34:23.223Z,11.20
2023-02-12T17:36:51.563Z,9.80
2023-02-12T17:39:19.721Z,11.50
2023-02-12T17:41:48.302Z,9.40
2023-02-12T17:44:16.444Z,7.40
2023-02-12T17:46:45.375Z,9.50
2023-02-12T17:49:13.931Z,8.90
2023-02-12T17:51:42.930Z,8.70
2023-02-12T17:54:10.956Z,9.70
2023-02-12T17:56:38.883Z,10.30
2023-02-12T17:59:06.968Z,7.70
2023-02-12T18:01:36.136Z,9.80
2023-02-12T18:04:04.298Z,10.20
2023-02-12T18:06:32.408Z,9.70
2023-02-12T18:09:01.966Z,9.50
2023-02-12T18:11:30.354Z,11.20
2023-02-12T18:13:58.675Z,11.50
2023-02-12T18:16:28.656Z,12.30
2023-02-12T18:18:57.514Z,13.20
2023-02-12T18:21:25.521Z,11.90
2023-02-12T18:23:54.414Z,11.50
2023-02-12T18:26:26.160Z,12.00
2023-02-12T18:28:58.605Z,11.50
2023-02-12T18:31:26.802Z,11.90
2023-02-12T18:33:54.814Z,11.10
2023-02-12T18:36:23.345Z,12.10
2023-02-12T18:38:52.030Z,12.30
2023-02-12T18:41:27.129Z,12.20
2023-02-12T18:43:55.429Z,11.90
2023-02-12T18:46:25.448Z,12.70
2023-02-12T18:48:54.021Z,12.60
2023-02-12T18:51:24.733Z,12.80
2023-02-12T18:54:01.741Z,12.40
2023-02-12T18:56:33.319Z,7.50
2023-02-12T18:59:02.851Z,12.10
2023-02-12T19:01:31.220Z,11.60
2023-02-12T19:04:01.441Z,12.70
2023-02-12T19:06:30.888Z,12.60
2023-02-12T19:09:03.426Z,11.40
2023-02-12T19:11:31.488Z,10.10
2023-02-12T19:13:59.730Z,8.40
2023-02-12T19:16:28.188Z,11.40
2023-02-12T19:18:58.529Z,11.50
2023-02-12T19:21:26.686Z,10.90
2023-02-12T19:23:55.510Z,9.60
2023-02-12T19:26:23.766Z,10.90
2023-02-12T19:28:51.862Z,9.70
2023-02-12T19:31:21.874Z,9.40
2023-02-12T19:33:50.557Z,10.20
2023-02-12T19:36:19.247Z,9.30
2023-02-12T19:38:48.052Z,10.80
2023-02-12T19:41:18.526Z,9.80
2023-02-12T19:43:46.703Z,11.10
2023-02-12T19:46:18.928Z,11.20
2023-02-12T19:48:47.166Z,10.10
2023-02-12T19:51:19.666Z,10.70
2023-02-12T19:53:47.910Z,8.70
2023-02-12T19:56:16.186Z,10.00
2023-02-12T19:58:44.627Z,9.40
2023-02-12T20:01:19.504Z,9.50
2023-02-12T20:03:48.348Z,9.90
2023-02-12T20:06:22.191Z,9.60
2023-02-12T20:08:50.585Z,8.00
2023-02-12T20:11:20.518Z,8.70
2023-02-12T20:13:48.614Z,9.10
2023-02-12T20:16:18.745Z,9.10
2023-02-12T20:18:48.545Z,8.10
2023-02-12T20:21:21.618Z,8.80
2023-02-12T20:23:49.983Z,9.80
2023-02-12T20:26:18.336Z,8.60
2023-02-12T20:28:46.706Z,7.80
2023-02-12T20:31:16.880Z,8.70
2023-02-12T20:33:45.218Z,9.30
2023-02-12T20:36:13.820Z,8.20
2023-02-12T20:38:42.365Z,7.10
2023-02-12T20:41:10.516Z,7.50
2023-02-12T20:43:38.874Z,8.50
2023-02-12T20:46:10.714Z,8.00
2023-02-12T20:48:39.136Z,8.60
2023-02-12T20:51:10.554Z,7.70
2023-02-12T20:53:38.721Z,7.00
2023-02-12T20:56:14.222Z,8.60
2023-02-12T20:58:44.948Z,8.90
2023-02-12T21:01:34.815Z,8.50
2023-02-12T21:04:05.274Z,7.70
2023-02-12T21:06:33.537Z,7.70
2023-02-12T21:09:01.650Z,8.70
2023-02-12T21:11:29.978Z,8.00
2023-02-12T21:14:12.505Z,7.80
2023-02-12T21:16:47.125Z,7.90
2023-02-12T21:19:15.212Z,6.70
2023-02-12T21:21:45.238Z,8.90
2023-02-12T21:24:24.160Z,8.10
2023-02-12T21:26:52.768Z,7.50
2023-02-12T21:29:21.180Z,7.70
2023-02-12T21:31:49.990Z,6.80
2023-02-12T21:34:20.685Z,7.40
2023-02-12T21:36:49.436Z,8.10
2023-02-12T21:39:25.359Z,7.70
2023-02-12T21:41:55.666Z,6.70
2023-02-12T21:44:24.180Z,7.20
2023-02-12T21:46:52.413Z,7.40
2023-02-12T21:49:25.235Z,7.20
2023-02-12T21:51:58.164Z,7.00
2023-02-12T21:54:26.453Z,7.90
2023-02-12T21:56:54.701Z,7.10
2023-02-12T21:59:24.859Z,5.90
2023-02-12T22:01:55.486Z,7.80
2023-02-12T22:04:23.440Z,7.50
2023-02-12T22:06:52.746Z,7.20
2023-02-12T22:09:21.748Z,6.10
2023-02-12T22:11:52.358Z,7.20
2023-02-12T22:14:21.156Z,6.70
2023-02-12T22:16:49.283Z,7.40
2023-02-12T22:19:17.253Z,6.70
2023-02-12T22:21:45.597Z,8.20
2023-02-12T22:24:15.152Z,6.90
2023-02-12T22:26:43.999Z,7.20
2023-02-12T22:29:14.012Z,6.80
2023-02-12T22:31:42.949Z,6.20
2023-02-12T22:34:13.902Z,5.20
2023-02-12T22:36:42.214Z,6.50
2023-02-12T22:39:11.562Z,6.60
2023-02-12T22:41:40.037Z,7.20
2023-02-12T22:44:09.690Z,6.90
2023-02-12T22:46:37.894Z,6.10
2023-02-12T22:49:06.412Z,6.70
2023-02-12T22:51:36.816Z,5.70
2023-02-12T22:54:06.769Z,6.40
2023-02-12T22:56:35.085Z,5.90
2023-02-12T22:59:03.099Z,6.70
2023-02-12T23:01:31.611Z,6.60
2023-02-12T23:03:59.806Z,6.20
2023-02-12T23:06:30.481Z,6.00
2023-02-12T23:09:01.808Z,6.40
2023-02-12T23:11:30.890Z,6.90
2023-02-12T23:14:00.093Z,5.50
2023-02-12T23:16:28.456Z,6.40
2023-02-12T23:18:58.032Z,6.50
2023-02-12T23:21:26.721Z,5.90
2023-02-12T23:23:55.271Z,6.30
2023-02-12T23:26:23.336Z,6.60
2023-02-12T23:28:51.487Z,6.60
2023-02-12T23:31:19.688Z,6.80
2023-02-12T23:33:47.697Z,6.00
2023-02-12T23:36:15.941Z,6.30
2023-02-12T23:38:43.936Z,5.90
2023-02-12T23:41:11.977Z,6.10
2023-02-12T23:43:40.117Z,6.60
2023-02-12T23:46:09.595Z,6.40
2023-02-12T23:48:37.992Z,5.90
2023-02-12T23:51:06.157Z,5.40
2023-02-12T23:53:34.458Z,5.20
2023-02-12T23:56:02.601Z,5.80
2023-02-12T23:58:30.633Z,6.00
